createdAt,value
2023-04-11T00:02:27.778Z,56.34
2023-04-11T00:04:59.191Z,56.77
2023-04-11T00:07:31.972Z,56.29
2023-04-11T00:10:02.634Z,56.44
2023-04-11T00:12:39.827Z,55.95
2023-04-11T00:15:16.065Z,56.21
2023-04-11T00:17:51.346Z,56.23
2023-04-11T00:20:20.607Z,55.96
2023-04-11T00:22:54.895Z,55.90
2023-04-11T00:25:30.360Z,55.73
2023-04-11T00:28:06.113Z,55.54
2023-04-11T00:30:42.743Z,55.34
2023-04-11T00:33:15.893Z,55.74
2023-04-11T00:35:58.138Z,55.60
2023-04-11T00:38:28.918Z,55.17
2023-04-11T00:40:56.421Z,55.85
2023-04-11T00:43:37.509Z,55.38
2023-04-11T00:46:09.588Z,54.97
2023-04-11T00:48:41.851Z,55.21
2023-04-11T00:51:09.360Z,55.24
2023-04-11T00:53:43.513Z,55.27
2023-04-11T00:56:13.225Z,55.15
2023-04-11T00:58:46.336Z,55.08
2023-04-11T01:01:16.928Z,54.68
2023-04-11T01:03:48.548Z,55.31
2023-04-11T01:06:23.189Z,55.87
2023-04-11T01:08:50.889Z,56.32
2023-04-11T01:11:21.971Z,58.13
2023-04-11T01:13:50.921Z,58.79
2023-04-11T01:16:21.948Z,58.57
2023-04-11T01:18:52.382Z,58.53
2023-04-11T01:21:24.716Z,58.08
2023-04-11T01:23:54.981Z,58.02
2023-04-11T01:26:26.038Z,58.69
2023-04-11T01:28:54.619Z,58.44
2023-04-11T01:31:25.736Z,58.91
2023-04-11T01:33:54.593Z,58.50
2023-04-11T01:36:29.107Z,58.58
2023-04-11T01:38:56.819Z,58.64
2023-04-11T01:41:34.273Z,58.19
2023-04-11T01:44:05.577Z,58.56
2023-04-11T01:46:33.419Z,58.92
2023-04-11T01:49:06.791Z,58.89
2023-04-11T01:51:44.482Z,58.14
2023-04-11T01:54:20.734Z,58.53
2023-04-11T01:57:04.540Z,58.29
2023-04-11T01:59:40.168Z,58.82
2023-04-11T02:02:15.923Z,58.44
2023-04-11T02:04:51.872Z,57.91
2023-04-11T02:07:23.833Z,57.51
2023-04-11T02:09:54.020Z,57.12
2023-04-11T02:12:24.518Z,56.85
2023-04-11T02:14:53.461Z,56.69
2023-04-11T02:17:26.833Z,56.59
2023-04-11T02:19:57.122Z,56.50
2023-04-11T02:22:25.233Z,56.13
2023-04-11T02:25:10.825Z,56.01
2023-04-11T02:27:38.174Z,55.44
2023-04-11T02:30:14.175Z,54.83
2023-04-11T02:32:47.201Z,54.04
2023-04-11T02:35:18.190Z,53.53
2023-04-11T02:37:50.072Z,52.62
2023-04-11T02:40:25.569Z,52.33
2023-04-11T02:43:08.810Z,51.93
2023-04-11T02:45:42.017Z,51.94
2023-04-11T02:48:14.807Z,52.11
2023-04-11T02:50:47.531Z,51.73
2023-04-11T02:53:27.333Z,51.92
2023-04-11T02:56:01.521Z,52.00
2023-04-11T02:58:33.600Z,51.95
2023-04-11T03:01:11.236Z,51.98
2023-04-11T03:03:41.384Z,52.00
2023-04-11T03:06:27.600Z,52.08
2023-04-11T03:09:04.301Z,52.16
2023-04-11T03:11:35.566Z,52.04
2023-04-11T03:14:09.045Z,51.65
2023-04-11T03:16:36.390Z,51.83
2023-04-11T03:19:04.826Z,51.72
2023-04-11T03:21:37.304Z,51.54
2023-04-11T03:24:05.649Z,51.50
2023-04-11T03:26:40.248Z,51.09
2023-04-11T03:29:16.860Z,51.46
2023-04-11T03:32:02.942Z,51.50
2023-04-11T03:34:39.620Z,51.58
2023-04-11T03:37:18.832Z,51.55
2023-04-11T03:39:49.470Z,51.72
2023-04-11T03:42:22.358Z,51.85
2023-04-11T03:44:58.844Z,51.67
2023-04-11T03:47:32.056Z,51.62
2023-04-11T03:50:11.542Z,50.83
2023-04-11T03:52:53.610Z,51.34
2023-04-11T03:55:23.163Z,51.13
2023-04-11T03:57:54.222Z,51.32
2023-04-11T04:00:32.404Z,51.12
2023-04-11T04:03:08.948Z,51.51
2023-04-11T04:05:41.392Z,51.29
2023-04-11T04:08:13.647Z,51.50
2023-04-11T04:10:52.877Z,51.18
2023-04-11T04:13:20.256Z,51.23
2023-04-11T04:16:02.605Z,51.28
2023-04-11T04:18:36.352Z,51.19
2023-04-11T04:21:07.402Z,51.02
2023-04-11T04:23:49.762Z,51.01
2023-04-11T04:26:30.260Z,51.14
2023-04-11T04:29:18.575Z,50.90
2023-04-11T04:31:58.256Z,50.81
2023-04-11T04:35:05.499Z,50.81
2023-04-11T04:37:39.777Z,51.06
2023-04-11T04:40:42.388Z,50.99
2023-04-11T04:43:24.464Z,51.13
2023-04-11T04:46:14.633Z,51.32
2023-04-11T04:48:53.383Z,51.86
2023-04-11T04:51:22.766Z,52.62
2023-04-11T04:54:19.780Z,52.51
2023-04-11T04:56:51.474Z,52.94
2023-04-11T04:59:26.931Z,53.54
2023-04-11T05:02:04.513Z,53.05
2023-04-11T05:04:34.395Z,53.53
2023-04-11T05:07:03.328Z,53.37
2023-04-11T05:09:32.049Z,53.29
2023-04-11T05:12:28.366Z,53.62
2023-04-11T05:15:04.877Z,53.40
2023-04-11T05:17:35.635Z,53.00
2023-04-11T05:20:07.195Z,53.42
2023-04-11T05:22:34.884Z,53.76
2023-04-11T05:25:07.905Z,53.53
2023-04-11T05:27:41.508Z,53.45
2023-04-11T05:30:12.781Z,53.30
2023-04-11T05:32:48.823Z,53.47
2023-04-11T05:35:24.317Z,53.64
2023-04-11T05:37:58.415Z,54.00
2023-04-11T05:40:40.045Z,54.24
2023-04-11T05:43:19.651Z,53.88
2023-04-11T05:45:55.716Z,53.57
2023-04-11T05:48:26.354Z,53.41
2023-04-11T05:51:03.828Z,53.14
2023-04-11T05:53:34.547Z,52.68
2023-04-11T05:56:05.108Z,52.88
2023-04-11T05:58:47.609Z,52.66
2023-04-11T06:01:20.128Z,52.54
2023-04-11T06:03:51.388Z,52.25
2023-04-11T06:06:24.019Z,52.01
2023-04-11T06:08:59.758Z,51.65
2023-04-11T06:11:35.710Z,51.39
2023-04-11T06:14:11.281Z,50.82
2023-04-11T06:16:51.526Z,51.00
2023-04-11T06:19:23.387Z,50.80
2023-04-11T06:21:53.641Z,50.39
2023-04-11T06:24:37.748Z,49.87
2023-04-11T06:27:07.148Z,49.83
2023-04-11T06:29:43.727Z,49.51
2023-04-11T06:32:25.997Z,48.94
2023-04-11T06:35:15.105Z,48.86
2023-04-11T06:37:52.906Z,48.80
2023-04-11T06:40:47.328Z,48.04
2023-04-11T06:43:18.132Z,48.48
2023-04-11T06:45:52.796Z,48.29
2023-04-11T06:48:28.298Z,47.93
2023-04-11T06:51:09.194Z,47.46
2023-04-11T06:53:39.705Z,47.49
2023-04-11T06:56:21.192Z,46.80
2023-04-11T06:58:57.802Z,46.81
2023-04-11T07:01:50.209Z,46.71
2023-04-11T07:04:27.347Z,46.59
2023-04-11T07:07:00.265Z,46.10
2023-04-11T07:09:38.608Z,45.85
2023-04-11T07:12:11.633Z,46.00
2023-04-11T07:14:48.047Z,45.62
2023-04-11T07:17:29.047Z,45.01
2023-04-11T07:20:11.778Z,45.15
2023-04-11T07:22:43.531Z,44.60
2023-04-11T07:25:24.803Z,45.14
2023-04-11T07:28:13.285Z,44.82
2023-04-11T07:30:49.699Z,44.97
2023-04-11T07:33:31.890Z,44.66
2023-04-11T07:36:08.911Z,44.17
2023-04-11T07:38:50.608Z,44.39
2023-04-11T07:41:27.582Z,44.47
2023-04-11T07:44:09.786Z,43.66
2023-04-11T07:46:47.204Z,43.95
2023-04-11T07:49:24.055Z,44.21
2023-04-11T07:51:59.478Z,44.23
2023-04-11T07:54:43.484Z,44.41
2023-04-11T07:57:15.044Z,44.82
2023-04-11T08:00:00.612Z,44.33
2023-04-11T08:02:36.298Z,44.62
2023-04-11T08:05:18.267Z,46.24
2023-04-11T08:08:02.942Z,46.74
2023-04-11T08:10:43.471Z,50.64
2023-04-11T08:13:25.165Z,50.47
2023-04-11T08:16:06.879Z,50.98
2023-04-11T08:18:45.371Z,50.83
2023-04-11T08:21:22.304Z,50.32
2023-04-11T08:23:55.888Z,49.24
2023-04-11T08:26:34.288Z,48.81
2023-04-11T08:29:13.059Z,48.59
2023-04-11T08:31:51.879Z,47.60
2023-04-11T08:34:19.421Z,47.73
2023-04-11T08:36:55.631Z,47.41
2023-04-11T08:39:38.401Z,46.84
2023-04-11T08:42:18.430Z,47.04
2023-04-11T08:45:04.067Z,46.64
2023-04-11T08:47:37.815Z,45.99
2023-04-11T08:50:20.557Z,44.53
2023-04-11T08:52:53.274Z,44.54
2023-04-11T08:55:36.395Z,43.88
2023-04-11T08:58:20.745Z,43.53
2023-04-11T09:00:52.665Z,43.90
2023-04-11T09:03:23.382Z,46.18
2023-04-11T09:05:54.970Z,46.68
2023-04-11T09:08:40.537Z,47.78
2023-04-11T09:11:28.647Z,48.06
2023-04-11T09:14:14.767Z,48.84
2023-04-11T09:17:17.582Z,48.89
2023-04-11T09:22:49.972Z,50.01
2023-04-11T09:25:45.268Z,48.35
2023-04-11T09:28:15.000Z,47.81
2023-04-11T09:30:55.226Z,48.19
2023-04-11T09:33:33.093Z,47.43
2023-04-11T09:36:25.121Z,47.77
2023-04-11T09:38:58.985Z,47.88
2023-04-11T09:44:43.495Z,48.91
2023-04-11T09:47:37.670Z,48.11
2023-04-11T09:50:35.814Z,48.72
2023-04-11T09:53:18.365Z,48.67
2023-04-11T09:56:11.304Z,47.87
2023-04-11T09:58:50.406Z,47.29
2023-04-11T10:01:21.262Z,46.68
2023-04-11T10:04:16.097Z,46.98
2023-04-11T10:07:11.846Z,47.92
2023-04-11T10:09:55.980Z,48.83
2023-04-11T10:12:48.788Z,48.38
2023-04-11T10:15:40.094Z,47.75
2023-04-11T10:18:24.337Z,49.29
2023-04-11T10:21:05.582Z,48.81
2023-04-11T10:24:10.294Z,49.26
2023-04-11T10:27:10.518Z,48.90
2023-04-11T10:29:55.630Z,49.17
2023-04-11T10:32:36.781Z,49.22
2023-04-11T10:35:31.054Z,48.90
2023-04-11T10:38:38.500Z,48.43
2023-04-11T10:41:28.711Z,48.63
2023-04-11T10:44:25.046Z,48.99
2023-04-11T10:47:19.230Z,49.54
2023-04-11T10:50:30.321Z,49.31
2023-04-11T10:53:40.701Z,49.04
2023-04-11T10:59:37.657Z,49.42
2023-04-11T11:02:29.732Z,49.51
2023-04-11T11:05:18.446Z,49.30
2023-04-11T11:08:13.822Z,49.81
2023-04-11T11:11:05.793Z,49.34
2023-04-11T11:14:03.198Z,48.92
2023-04-11T11:16:47.220Z,48.66
2023-04-11T11:19:32.910Z,48.96
2023-04-11T11:22:04.336Z,48.60
2023-04-11T11:24:45.297Z,47.85
2023-04-11T11:27:27.908Z,48.79
2023-04-11T11:30:23.419Z,47.68
2023-04-11T11:33:04.225Z,47.74
2023-04-11T11:35:59.408Z,48.14
2023-04-11T11:38:33.258Z,48.30
2023-04-11T11:41:11.142Z,47.84
2023-04-11T11:43:57.635Z,47.50
2023-04-11T11:47:02.206Z,48.04
2023-04-11T11:50:14.279Z,48.51
2023-04-11T11:55:38.543Z,48.57
2023-04-11T11:58:06.432Z,48.08
2023-04-11T12:00:42.148Z,48.73
2023-04-11T12:03:25.634Z,48.22
2023-04-11T12:06:11.040Z,47.89
2023-04-11T12:11:54.148Z,49.49
2023-04-11T12:14:32.235Z,49.11
2023-04-11T12:17:04.163Z,48.24
2023-04-11T12:19:42.421Z,48.85
2023-04-11T12:22:20.964Z,47.98
2023-04-11T12:25:19.598Z,48.44
2023-04-11T12:28:03.533Z,46.81
2023-04-11T12:30:31.100Z,47.98
2023-04-11T12:33:26.620Z,47.32
2023-04-11T12:36:10.777Z,47.29
2023-04-11T12:38:47.240Z,47.43
2023-04-11T12:41:32.245Z,46.61
2023-04-11T12:44:07.460Z,47.00
2023-04-11T12:46:40.897Z,48.03
2023-04-11T12:49:17.817Z,46.81
2023-04-11T12:51:57.476Z,45.46
2023-04-11T12:54:51.441Z,43.69
2023-04-11T12:57:28.510Z,43.95
2023-04-11T13:02:52.631Z,43.20
2023-04-11T13:05:33.731Z,43.00
2023-04-11T13:08:18.754Z,43.08
2023-04-11T13:11:03.439Z,43.40
2023-04-11T13:13:42.421Z,43.38
2023-04-11T13:16:10.169Z,43.59
2023-04-11T13:18:49.547Z,43.74
2023-04-11T13:21:27.444Z,43.64
2023-04-11T13:24:10.991Z,42.34
2023-04-11T13:29:50.843Z,43.22
2023-04-11T13:32:20.523Z,44.10
2023-04-11T13:34:48.146Z,44.43
2023-04-11T13:37:17.520Z,43.06
2023-04-11T13:39:45.075Z,44.75
2023-04-11T13:42:15.094Z,44.48
2023-04-11T13:44:49.656Z,43.78
2023-04-11T13:47:17.332Z,44.44
2023-04-11T13:49:49.012Z,46.99
2023-04-11T13:52:24.870Z,48.13
2023-04-11T13:54:52.249Z,47.18
2023-04-11T13:57:25.472Z,46.71
2023-04-11T13:59:58.240Z,45.44
2023-04-11T14:02:40.992Z,44.95
2023-04-11T14:05:21.418Z,47.34
2023-04-11T14:08:06.061Z,45.86
2023-04-11T14:10:39.715Z,47.28
2023-04-11T14:13:12.341Z,45.50
2023-04-11T14:18:30.539Z,46.54
2023-04-11T14:21:28.760Z,46.63
2023-04-11T14:24:13.305Z,45.74
2023-04-11T14:26:53.721Z,45.44
2023-04-11T14:29:29.007Z,46.17
2023-04-11T14:32:13.679Z,44.68
2023-04-11T14:34:43.439Z,45.00
2023-04-11T14:37:18.055Z,43.45
2023-04-11T14:39:50.983Z,46.26
2023-04-11T14:42:26.956Z,46.12
2023-04-11T14:44:59.284Z,45.41
2023-04-11T14:47:32.190Z,45.78
2023-04-11T14:50:04.297Z,44.46
2023-04-11T14:52:34.337Z,45.33
2023-04-11T14:55:06.809Z,45.60
2023-04-11T14:57:57.755Z,46.24
2023-04-11T15:00:28.407Z,46.30
2023-04-11T15:02:57.666Z,46.45
2023-04-11T15:05:30.538Z,47.03
2023-04-11T15:08:06.402Z,49.48
2023-04-11T15:10:54.666Z,46.68
2023-04-11T15:16:31.621Z,47.83
2023-04-11T15:19:18.032Z,48.06
2023-04-11T15:21:53.909Z,48.07
2023-04-11T15:24:24.480Z,47.00
2023-04-11T15:27:00.435Z,49.29
2023-04-11T15:29:38.894Z,47.77
2023-04-11T15:32:11.744Z,48.60
2023-04-11T15:34:49.633Z,49.09
2023-04-11T15:37:29.978Z,48.80
2023-04-11T15:40:06.386Z,47.63
2023-04-11T15:42:37.922Z,49.83
2023-04-11T15:45:08.884Z,49.23
2023-04-11T15:47:41.452Z,47.83
2023-04-11T15:50:14.741Z,49.83
2023-04-11T15:52:45.079Z,48.09
2023-04-11T15:55:20.790Z,49.46
2023-04-11T15:57:56.401Z,50.58
2023-04-11T16:00:32.604Z,49.14
2023-04-11T16:03:06.112Z,48.38
2023-04-11T16:05:47.527Z,47.41
2023-04-11T16:08:41.953Z,48.31
2023-04-11T16:11:54.086Z,46.87
2023-04-11T16:17:55.536Z,48.12
2023-04-11T16:20:46.234Z,48.87
2023-04-11T16:23:26.393Z,48.94
2023-04-11T16:26:08.399Z,48.88
2023-04-11T16:28:56.012Z,49.51
2023-04-11T16:31:38.980Z,49.19
2023-04-11T16:34:30.219Z,48.12
2023-04-11T16:37:34.978Z,47.56
2023-04-11T16:40:17.587Z,47.46
2023-04-11T16:42:52.542Z,46.96
2023-04-11T16:48:40.787Z,47.06
2023-04-11T16:51:33.279Z,45.68
2023-04-11T16:54:12.016Z,45.65
2023-04-11T16:56:48.940Z,44.42
2023-04-11T16:59:49.265Z,44.45
2023-04-11T17:02:37.448Z,43.89
2023-04-11T17:05:21.133Z,43.68
2023-04-11T17:07:49.732Z,43.72
2023-04-11T17:10:41.984Z,43.91
2023-04-11T17:13:30.210Z,43.20
2023-04-11T17:16:06.685Z,42.99
2023-04-11T17:18:55.044Z,43.31
2023-04-11T17:21:40.310Z,41.14
2023-04-11T17:24:25.706Z,40.91
2023-04-11T17:27:22.457Z,40.93
2023-04-11T17:30:19.966Z,40.51
2023-04-11T17:33:29.134Z,40.92
2023-04-11T17:36:22.668Z,40.04
2023-04-11T17:39:10.921Z,40.28
2023-04-11T17:42:03.206Z,39.91
2023-04-11T17:44:49.763Z,39.86
2023-04-11T17:47:23.755Z,39.67
2023-04-11T17:50:12.723Z,39.81
2023-04-11T17:52:42.995Z,39.83
2023-04-11T17:55:12.024Z,39.81
2023-04-11T17:57:50.440Z,39.16
2023-04-11T18:00:26.041Z,39.61
2023-04-11T18:03:12.163Z,38.78
2023-04-11T18:05:53.520Z,39.15
2023-04-11T18:08:46.854Z,39.41
2023-04-11T18:11:38.893Z,39.62
2023-04-11T18:17:17.028Z,40.55
2023-04-11T18:20:07.760Z,40.08
2023-04-11T18:25:41.482Z,42.76
2023-04-11T18:28:37.876Z,42.52
2023-04-11T18:31:38.650Z,43.06
2023-04-11T18:34:32.998Z,43.97
2023-04-11T18:37:19.564Z,44.35
2023-04-11T18:40:20.509Z,47.74
2023-04-11T18:42:58.487Z,48.02
2023-04-11T18:45:54.838Z,48.31
2023-04-11T18:48:47.627Z,48.55
2023-04-11T18:51:57.297Z,49.69
2023-04-11T18:57:47.636Z,49.74
2023-04-11T19:00:35.383Z,49.30
2023-04-11T19:03:19.146Z,49.73
2023-04-11T19:05:59.116Z,50.19
2023-04-11T19:08:51.065Z,50.61
2023-04-11T19:11:42.498Z,50.48
2023-04-11T19:14:15.977Z,51.21
2023-04-11T19:17:23.701Z,50.93
2023-04-11T19:19:54.752Z,50.09
2023-04-11T19:25:15.181Z,50.24
2023-04-11T19:30:45.215Z,51.39
2023-04-11T19:33:22.721Z,52.25
2023-04-11T19:36:04.793Z,52.46
2023-04-11T19:38:42.349Z,51.69
2023-04-11T19:44:19.183Z,52.00
2023-04-11T19:47:03.070Z,52.95
2023-04-11T19:49:53.809Z,53.08
2023-04-11T19:52:30.128Z,51.74
2023-04-11T19:55:14.252Z,51.89
2023-04-11T19:57:44.050Z,52.06
2023-04-11T20:00:22.552Z,50.84
2023-04-11T20:03:06.032Z,50.41
2023-04-11T20:05:56.405Z,50.60
2023-04-11T20:08:32.738Z,50.01
2023-04-11T20:11:42.899Z,50.08
2023-04-11T20:14:13.164Z,50.60
2023-04-11T20:16:49.442Z,49.68
2023-04-11T20:19:29.927Z,49.15
2023-04-11T20:22:05.511Z,48.82
2023-04-11T20:24:40.315Z,48.78
2023-04-11T20:27:13.134Z,48.03
2023-04-11T20:29:51.951Z,47.46
2023-04-11T20:32:34.084Z,47.09
2023-04-11T20:35:14.683Z,46.79
2023-04-11T20:37:53.040Z,47.15
2023-04-11T20:40:23.804Z,46.94
2023-04-11T20:42:58.761Z,46.73
2023-04-11T20:45:33.115Z,46.58
2023-04-11T20:48:04.550Z,46.27
2023-04-11T20:50:38.295Z,46.18
2023-04-11T20:53:13.786Z,45.73
2023-04-11T20:55:51.839Z,45.75
2023-04-11T20:58:29.171Z,45.72
2023-04-11T21:00:57.519Z,45.46
2023-04-11T21:03:36.732Z,45.74
2023-04-11T21:06:07.765Z,45.43
2023-04-11T21:08:37.930Z,45.90
2023-04-11T21:11:05.997Z,45.60
2023-04-11T21:13:33.312Z,45.71
2023-04-11T21:16:01.241Z,45.78
2023-04-11T21:18:29.134Z,45.26
2023-04-11T21:20:56.790Z,45.08
2023-04-11T21:23:30.292Z,45.34
2023-04-11T21:26:00.695Z,45.02
2023-04-11T21:28:29.524Z,45.32
2023-04-11T21:31:01.588Z,45.41
2023-04-11T21:33:32.243Z,45.51
2023-04-11T21:36:07.554Z,45.63
2023-04-11T21:38:38.207Z,45.80
2023-04-11T21:41:10.968Z,45.90
2023-04-11T21:43:38.557Z,46.27
2023-04-11T21:46:05.877Z,46.31
2023-04-11T21:48:33.238Z,46.47
2023-04-11T21:51:02.058Z,46.55
2023-04-11T21:53:29.319Z,46.49
2023-04-11T21:55:59.361Z,46.61
2023-04-11T21:58:30.644Z,46.51
2023-04-11T22:01:02.724Z,46.57
2023-04-11T22:03:31.387Z,47.02
2023-04-11T22:05:59.225Z,46.79
2023-04-11T22:08:29.580Z,46.64
2023-04-11T22:11:01.885Z,46.46
2023-04-11T22:13:34.952Z,47.07
2023-04-11T22:16:05.876Z,46.78
2023-04-11T22:18:48.651Z,47.55
2023-04-11T22:21:21.474Z,47.64
2023-04-11T22:23:57.095Z,47.61
2023-04-11T22:26:33.273Z,47.78
2023-04-11T22:29:14.863Z,47.69
2023-04-11T22:31:45.467Z,47.79
2023-04-11T22:34:16.735Z,47.64
2023-04-11T22:36:44.295Z,47.64
2023-04-11T22:39:11.948Z,47.46
2023-04-11T22:41:39.438Z,47.97
2023-04-11T22:44:07.153Z,48.06
2023-04-11T22:46:44.455Z,48.30
2023-04-11T22:49:21.355Z,48.19
2023-04-11T22:51:48.663Z,48.03
2023-04-11T22:54:15.888Z,47.86
2023-04-11T22:56:43.365Z,48.07
2023-04-11T22:59:11.101Z,47.69
2023-04-11T23:01:38.378Z,47.88
2023-04-11T23:04:05.672Z,48.16
2023-04-11T23:06:33.021Z,48.23
2023-04-11T23:09:00.201Z,47.86
2023-04-11T23:11:27.363Z,48.27
2023-04-11T23:14:01.202Z,48.42
2023-04-11T23:16:28.578Z,47.99
2023-04-11T23:18:55.767Z,48.11
2023-04-11T23:21:23.064Z,48.20
2023-04-11T23:23:50.379Z,48.33
2023-04-11T23:26:25.312Z,48.25
2023-04-11T23:29:02.194Z,48.24
2023-04-11T23:31:30.349Z,48.42
2023-04-11T23:33:57.785Z,48.15
2023-04-11T23:36:28.202Z,48.19
2023-04-11T23:38:58.616Z,48.07
2023-04-11T23:41:25.972Z,48.16
2023-04-11T23:43:53.216Z,48.15
2023-04-11T23:46:20.730Z,48.42
2023-04-11T23:48:47.961Z,48.57
2023-04-11T23:51:16.418Z,48.78
2023-04-11T23:53:47.012Z,48.79
2023-04-11T23:56:14.508Z,48.78
2023-04-11T23:58:41.877Z,48.84
